KHSAKHRT

Guest
Details From KHSA - STENNIS INTL
To KHRT - HURLBURT FLD
Flight Number -
Tags generated
Created
Modified
Stats Distance 143 nm / 265 km
Max Altitude 15,200 ft / 4,633 m
Waypoints 3
Social Downloads 1
Likes 0
Share VATSIM

Download

Looking for another format? Having issues loading an existing format? Contact us
Advertisement - Login to hide

Notes

Basic altitude profile: - Ascent Rate: 1500ft/min - Ascent Speed: 250kts - Cruise Altitude: 400000ft - Cruise Speed: 420kts - Descent Rate: 1500ft/min - Descent Speed: 250kts Options: - Use NATs: yes - Use PACOTS: yes - Use low airways: yes - Use high airways: no

Route

KHSA VICKI KHRT

ID Type Via Altitude Latitude Longitude Leg Dist Tot Dist Heading (true) Name
O KHSA APT - 0 ft / 0 m 30.36781˚ -89.45461˚ - 0 nm - STENNIS INTL
VICKI FIX - 15,200 ft / 4,633 m 30.39264˚ -88.62833˚ 42 nm 42 nm 88° / 88° -
O KHRT APT - 0 ft / 0 m 30.42892˚ -86.68880˚ 100 nm 143 nm 88° / 89° HURLBURT FLD

Altitude Profile

Advertisement - Login to hide

KHSA

Details ICAO KHSA
Name STENNIS INTL
Region United States
Timezone America/Chicago (UTC-6.0)
Stats Elevation 22 ft / 7 m (AMSL)
Location 30.367808° -89.454610°
Runways 1
Magnetic Variation 1.293° W

METAR

KHSA 110250Z 00000KT 10SM CLR 02/02 A3036

Decode

TAF

Not found

Departure Runways

ID Width Length Bearing (true) Bearing (mag) Surface Threshold Offset Overrun Length
18 150 ft / 46 m 8,527 ft / 2,599 m 180.17° 181.46° Asphalt 0 ft / 0 m 0 ft / 0 m
36 150 ft / 46 m 8,527 ft / 2,599 m 0.17° 1.46° Asphalt 0 ft / 0 m 200 ft / 61 m

KHRT

Details ICAO KHRT (HRT)
Name HURLBURT FLD
Region United States
Timezone America/Chicago (UTC-6.0)
Stats Elevation 38 ft / 12 m (AMSL)
Location 30.428918° -86.688801°
Runways 1
Magnetic Variation 3.147° W

METAR

KHRT 110256Z AUTO 32003KT 10SM CLR 03/01 A3031 RMK AO2 SLP266 T00340014 50000 $

Decode

TAF

TAF KHRT 110100Z 1101/1207 30006KT 9999 SKC QNH3028INS BECMG 1114/1115 27009KT 9999 SKC QNH3020INS BECMG 1117/1118 25012KT 9999 SKC QNH3014INS BECMG 1123/1124 28009KT 9999 SKC QNH3007INS TX15/1121Z TNM01/1111Z

Decode

Destination Runways

ID Width Length Bearing (true) Bearing (mag) Surface Threshold Offset Overrun Length
18 150 ft / 46 m 9,632 ft / 2,936 m 175.99° 179.14° Concrete 0 ft / 0 m 1,000 ft / 305 m
36 150 ft / 46 m 9,632 ft / 2,936 m 355.99° 359.14° Concrete 0 ft / 0 m 1,000 ft / 305 m

Approach Navaids

Runway Type Ident Frequency Range Bearing (true) Bearing (mag) Slope Elevation
36 Localiser IHRT 111.30 MHz 18 nm / 33 km 355.99° 359.14° - 35 ft / 11 m (AMSL)
36 Glidescope IHRT 111.30 MHz 10 nm / 19 km 355.99° 359.14° 2.50° 38 ft / 12 m (AMSL)